sensor_id;sensor_type;location;lat;lon;timestamp;pressure;altitude;pressure_sealevel;temperature
14023;BMP180;7086;48.116;11.580;2023-09-18T00:00:59;94990.00;;;22.80
14023;BMP180;7086;48.116;11.580;2023-09-18T00:03:26;94976.00;;;22.70
14023;BMP180;7086;48.116;11.580;2023-09-18T00:05:52;94961.00;;;22.70
14023;BMP180;7086;48.116;11.580;2023-09-18T00:08:19;94959.00;;;22.80
14023;BMP180;7086;48.116;11.580;2023-09-18T00:10:47;94979.00;;;22.80
14023;BMP180;7086;48.116;11.580;2023-09-18T00:13:15;94989.00;;;22.80
14023;BMP180;7086;48.116;11.580;2023-09-18T00:15:42;94981.00;;;22.60
14023;BMP180;7086;48.116;11.580;2023-09-18T00:18:11;94972.00;;;22.60
14023;BMP180;7086;48.116;11.580;2023-09-18T00:20:38;94938.00;;;22.60
14023;BMP180;7086;48.116;11.580;2023-09-18T00:23:07;94971.00;;;22.70
14023;BMP180;7086;48.116;11.580;2023-09-18T00:25:34;94961.00;;;22.60
14023;BMP180;7086;48.116;11.580;2023-09-18T00:28:02;94967.00;;;22.60
14023;BMP180;7086;48.116;11.580;2023-09-18T00:30:29;94955.00;;;22.50
14023;BMP180;7086;48.116;11.580;2023-09-18T00:32:56;94938.00;;;22.50
14023;BMP180;7086;48.116;11.580;2023-09-18T00:35:24;94964.00;;;22.60
14023;BMP180;7086;48.116;11.580;2023-09-18T00:37:51;94928.00;;;22.50
14023;BMP180;7086;48.116;11.580;2023-09-18T00:40:18;94904.00;;;22.50
14023;BMP180;7086;48.116;11.580;2023-09-18T00:42:45;94903.00;;;22.50
14023;BMP180;7086;48.116;11.580;2023-09-18T00:45:13;94919.00;;;22.40
14023;BMP180;7086;48.116;11.580;2023-09-18T00:47:40;94891.00;;;22.50
14023;BMP180;7086;48.116;11.580;2023-09-18T00:50:09;94903.00;;;22.40
14023;BMP180;7086;48.116;11.580;2023-09-18T00:52:40;94901.00;;;22.40
14023;BMP180;7086;48.116;11.580;2023-09-18T00:55:07;94904.00;;;22.40
14023;BMP180;7086;48.116;11.580;2023-09-18T00:57:35;94892.00;;;22.40
14023;BMP180;7086;48.116;11.580;2023-09-18T01:00:03;94927.00;;;22.40
14023;BMP180;7086;48.116;11.580;2023-09-18T01:02:32;94911.00;;;22.40
14023;BMP180;7086;48.116;11.580;2023-09-18T01:04:59;94871.00;;;22.40
14023;BMP180;7086;48.116;11.580;2023-09-18T01:07:26;94894.00;;;22.40
14023;BMP180;7086;48.116;11.580;2023-09-18T01:09:55;94889.00;;;22.30
14023;BMP180;7086;48.116;11.580;2023-09-18T01:12:28;94811.00;;;22.40
14023;BMP180;7086;48.116;11.580;2023-09-18T01:15:02;94897.00;;;22.40
14023;BMP180;7086;48.116;11.580;2023-09-18T01:17:34;94883.00;;;22.30
14023;BMP180;7086;48.116;11.580;2023-09-18T01:20:02;94875.00;;;22.20
14023;BMP180;7086;48.116;11.580;2023-09-18T01:22:31;94888.00;;;22.30
14023;BMP180;7086;48.116;11.580;2023-09-18T01:24:58;94911.00;;;22.40
14023;BMP180;7086;48.116;11.580;2023-09-18T01:27:25;94905.00;;;22.40
14023;BMP180;7086;48.116;11.580;2023-09-18T01:29:51;94907.00;;;22.40
14023;BMP180;7086;48.116;11.580;2023-09-18T01:32:19;94890.00;;;22.40
14023;BMP180;7086;48.116;11.580;2023-09-18T01:34:47;94921.00;;;22.40
14023;BMP180;7086;48.116;11.580;2023-09-18T01:37:16;94888.00;;;22.40
14023;BMP180;7086;48.116;11.580;2023-09-18T01:39:48;94881.00;;;22.40
14023;BMP180;7086;48.116;11.580;2023-09-18T01:42:15;94915.00;;;22.50
14023;BMP180;7086;48.116;11.580;2023-09-18T01:44:43;94906.00;;;22.50
14023;BMP180;7086;48.116;11.580;2023-09-18T01:47:12;94831.00;;;22.50
14023;BMP180;7086;48.116;11.580;2023-09-18T01:49:40;94890.00;;;22.50
14023;BMP180;7086;48.116;11.580;2023-09-18T01:52:08;94820.00;;;22.40
14023;BMP180;7086;48.116;11.580;2023-09-18T01:54:35;94869.00;;;22.50
14023;BMP180;7086;48.116;11.580;2023-09-18T01:57:04;94798.00;;;22.50
14023;BMP180;7086;48.116;11.580;2023-09-18T01:59:33;94878.00;;;22.50
14023;BMP180;7086;48.116;11.580;2023-09-18T02:02:00;94851.00;;;22.40
14023;BMP180;7086;48.116;11.580;2023-09-18T02:04:29;94839.00;;;22.50
14023;BMP180;7086;48.116;11.580;2023-09-18T02:06:56;94848.00;;;22.40
14023;BMP180;7086;48.116;11.580;2023-09-18T02:09:23;94824.00;;;22.40
14023;BMP180;7086;48.116;11.580;2023-09-18T02:11:50;94837.00;;;22.50
14023;BMP180;7086;48.116;11.580;2023-09-18T02:14:18;94873.00;;;22.40
14023;BMP180;7086;48.116;11.580;2023-09-18T02:16:45;94866.00;;;22.40
14023;BMP180;7086;48.116;11.580;2023-09-18T02:19:13;94748.00;;;22.40
14023;BMP180;7086;48.116;11.580;2023-09-18T02:21:40;94851.00;;;22.20
14023;BMP180;7086;48.116;11.580;2023-09-18T02:24:07;94843.00;;;22.30
14023;BMP180;7086;48.116;11.580;2023-09-18T02:26:35;94848.00;;;22.30
14023;BMP180;7086;48.116;11.580;2023-09-18T02:29:05;94864.00;;;22.30
14023;BMP180;7086;48.116;11.580;2023-09-18T02:31:33;94820.00;;;22.20
14023;BMP180;7086;48.116;11.580;2023-09-18T02:34:00;94847.00;;;22.30
14023;BMP180;7086;48.116;11.580;2023-09-18T02:36:26;94819.00;;;22.30
14023;BMP180;7086;48.116;11.580;2023-09-18T02:38:53;94830.00;;;22.20
14023;BMP180;7086;48.116;11.580;2023-09-18T02:41:20;94846.00;;;22.20
14023;BMP180;7086;48.116;11.580;2023-09-18T02:43:47;94837.00;;;22.10
14023;BMP180;7086;48.116;11.580;2023-09-18T02:46:14;94847.00;;;22.20
14023;BMP180;7086;48.116;11.580;2023-09-18T02:48:42;94828.00;;;22.10
14023;BMP180;7086;48.116;11.580;2023-09-18T02:51:09;94824.00;;;22.20
14023;BMP180;7086;48.116;11.580;2023-09-18T02:53:35;94805.00;;;22.10
14023;BMP180;7086;48.116;11.580;2023-09-18T02:56:02;94819.00;;;22.10
14023;BMP180;7086;48.116;11.580;2023-09-18T02:58:29;94813.00;;;22.10
14023;BMP180;7086;48.116;11.580;2023-09-18T03:00:57;94822.00;;;22.00
14023;BMP180;7086;48.116;11.580;2023-09-18T03:03:25;94829.00;;;22.00
14023;BMP180;7086;48.116;11.580;2023-09-18T03:06:00;94815.00;;;22.00
14023;BMP180;7086;48.116;11.580;2023-09-18T03:08:27;94801.00;;;22.00
14023;BMP180;7086;48.116;11.580;2023-09-18T03:10:54;94816.00;;;22.00
14023;BMP180;7086;48.116;11.580;2023-09-18T03:13:21;94811.00;;;22.00
14023;BMP180;7086;48.116;11.580;2023-09-18T03:15:48;94818.00;;;22.00
14023;BMP180;7086;48.116;11.580;2023-09-18T03:18:15;94817.00;;;22.00
14023;BMP180;7086;48.116;11.580;2023-09-18T03:20:42;94814.00;;;22.00
14023;BMP180;7086;48.116;11.580;2023-09-18T03:23:10;94801.00;;;22.00
14023;BMP180;7086;48.116;11.580;2023-09-18T03:25:37;94803.00;;;22.00
14023;BMP180;7086;48.116;11.580;2023-09-18T03:28:04;94794.00;;;22.10
14023;BMP180;7086;48.116;11.580;2023-09-18T03:30:31;94793.00;;;22.10
14023;BMP180;7086;48.116;11.580;2023-09-18T03:32:58;94791.00;;;22.10
14023;BMP180;7086;48.116;11.580;2023-09-18T03:35:24;94781.00;;;22.10
14023;BMP180;7086;48.116;11.580;2023-09-18T03:37:52;94775.00;;;22.10
14023;BMP180;7086;48.116;11.580;2023-09-18T03:40:22;94774.00;;;22.10
14023;BMP180;7086;48.116;11.580;2023-09-18T03:42:49;94788.00;;;22.10
14023;BMP180;7086;48.116;11.580;2023-09-18T03:45:16;94770.00;;;22.10
14023;BMP180;7086;48.116;11.580;2023-09-18T03:47:44;94774.00;;;22.10
14023;BMP180;7086;48.116;11.580;2023-09-18T03:50:12;94764.00;;;22.00
14023;BMP180;7086;48.116;11.580;2023-09-18T03:52:38;94755.00;;;22.10
14023;BMP180;7086;48.116;11.580;2023-09-18T03:55:06;94755.00;;;22.10
14023;BMP180;7086;48.116;11.580;2023-09-18T03:57:34;94749.00;;;22.00
14023;BMP180;7086;48.116;11.580;2023-09-18T04:00:03;94731.00;;;22.10
14023;BMP180;7086;48.116;11.580;2023-09-18T04:02:30;94754.00;;;22.00
14023;BMP180;7086;48.116;11.580;2023-09-18T04:04:57;94754.00;;;21.90
14023;BMP180;7086;48.116;11.580;2023-09-18T04:07:23;94724.00;;;21.90
14023;BMP180;7086;48.116;11.580;2023-09-18T04:09:50;94747.00;;;22.00
14023;BMP180;7086;48.116;11.580;2023-09-18T04:12:17;94753.00;;;22.00
14023;BMP180;7086;48.116;11.580;2023-09-18T04:14:45;94756.00;;;21.90
14023;BMP180;7086;48.116;11.580;2023-09-18T04:17:12;94746.00;;;21.90
14023;BMP180;7086;48.116;11.580;2023-09-18T04:19:39;94733.00;;;21.90
14023;BMP180;7086;48.116;11.580;2023-09-18T04:22:05;94730.00;;;21.90
14023;BMP180;7086;48.116;11.580;2023-09-18T04:24:33;94728.00;;;21.90
14023;BMP180;7086;48.116;11.580;2023-09-18T04:27:00;94741.00;;;21.90
14023;BMP180;7086;48.116;11.580;2023-09-18T04:29:27;94734.00;;;21.90
14023;BMP180;7086;48.116;11.580;2023-09-18T04:31:55;94738.00;;;21.90
14023;BMP180;7086;48.116;11.580;2023-09-18T04:34:23;94730.00;;;21.90
14023;BMP180;7086;48.116;11.580;2023-09-18T04:36:50;94722.00;;;21.80
14023;BMP180;7086;48.116;11.580;2023-09-18T04:39:16;94676.00;;;21.80
14023;BMP180;7086;48.116;11.580;2023-09-18T04:41:45;94725.00;;;21.80
14023;BMP180;7086;48.116;11.580;2023-09-18T04:44:11;94730.00;;;21.80
14023;BMP180;7086;48.116;11.580;2023-09-18T04:46:39;94730.00;;;21.80
14023;BMP180;7086;48.116;11.580;2023-09-18T04:49:09;94733.00;;;21.80
14023;BMP180;7086;48.116;11.580;2023-09-18T04:51:37;94730.00;;;21.70
14023;BMP180;7086;48.116;11.580;2023-09-18T04:54:04;94730.00;;;21.70
14023;BMP180;7086;48.116;11.580;2023-09-18T04:56:32;94717.00;;;21.70
14023;BMP180;7086;48.116;11.580;2023-09-18T04:58:58;94728.00;;;21.70
14023;BMP180;7086;48.116;11.580;2023-09-18T05:01:25;94726.00;;;21.60
14023;BMP180;7086;48.116;11.580;2023-09-18T05:03:52;94722.00;;;21.60
14023;BMP180;7086;48.116;11.580;2023-09-18T05:06:20;94732.00;;;21.50
14023;BMP180;7086;48.116;11.580;2023-09-18T05:08:47;94742.00;;;21.60
14023;BMP180;7086;48.116;11.580;2023-09-18T05:11:14;94723.00;;;21.60
14023;BMP180;7086;48.116;11.580;2023-09-18T05:13:40;94746.00;;;21.70
14023;BMP180;7086;48.116;11.580;2023-09-18T05:16:07;94737.00;;;21.70
14023;BMP180;7086;48.116;11.580;2023-09-18T05:18:34;94746.00;;;21.70
14023;BMP180;7086;48.116;11.580;2023-09-18T05:21:01;94745.00;;;21.80
14023;BMP180;7086;48.116;11.580;2023-09-18T05:23:31;94747.00;;;21.80
14023;BMP180;7086;48.116;11.580;2023-09-18T05:25:58;94750.00;;;21.90
14023;BMP180;7086;48.116;11.580;2023-09-18T05:28:25;94753.00;;;21.90
14023;BMP180;7086;48.116;11.580;2023-09-18T05:30:51;94743.00;;;22.00
14023;BMP180;7086;48.116;11.580;2023-09-18T05:33:18;94746.00;;;22.00
14023;BMP180;7086;48.116;11.580;2023-09-18T05:35:45;94754.00;;;22.10
14023;BMP180;7086;48.116;11.580;2023-09-18T05:38:13;94760.00;;;22.20
14023;BMP180;7086;48.116;11.580;2023-09-18T05:40:41;94761.00;;;22.20
14023;BMP180;7086;48.116;11.580;2023-09-18T05:43:09;94761.00;;;22.30
14023;BMP180;7086;48.116;11.580;2023-09-18T05:45:36;94755.00;;;22.40
14023;BMP180;7086;48.116;11.580;2023-09-18T05:48:04;94759.00;;;22.40
14023;BMP180;7086;48.116;11.580;2023-09-18T05:50:31;94759.00;;;22.50
14023;BMP180;7086;48.116;11.580;2023-09-18T05:52:58;94745.00;;;22.60
14023;BMP180;7086;48.116;11.580;2023-09-18T05:55:29;94752.00;;;22.60
14023;BMP180;7086;48.116;11.580;2023-09-18T05:57:57;94751.00;;;22.80
14023;BMP180;7086;48.116;11.580;2023-09-18T06:00:24;94739.00;;;22.90
14023;BMP180;7086;48.116;11.580;2023-09-18T06:02:51;94731.00;;;23.00
14023;BMP180;7086;48.116;11.580;2023-09-18T06:05:18;94717.00;;;23.10
14023;BMP180;7086;48.116;11.580;2023-09-18T06:07:47;94739.00;;;23.10
14023;BMP180;7086;48.116;11.580;2023-09-18T06:10:14;94756.00;;;23.20
14023;BMP180;7086;48.116;11.580;2023-09-18T06:12:42;94757.00;;;23.30
14023;BMP180;7086;48.116;11.580;2023-09-18T06:15:10;94750.00;;;23.50
14023;BMP180;7086;48.116;11.580;2023-09-18T06:17:38;94742.00;;;23.60
14023;BMP180;7086;48.116;11.580;2023-09-18T06:20:06;94734.00;;;23.60
14023;BMP180;7086;48.116;11.580;2023-09-18T06:22:36;94744.00;;;23.80
14023;BMP180;7086;48.116;11.580;2023-09-18T06:25:04;94742.00;;;24.00
14023;BMP180;7086;48.116;11.580;2023-09-18T06:27:33;94741.00;;;24.10
14023;BMP180;7086;48.116;11.580;2023-09-18T06:30:00;94728.00;;;24.20
14023;BMP180;7086;48.116;11.580;2023-09-18T06:32:28;94708.00;;;24.40
14023;BMP180;7086;48.116;11.580;2023-09-18T06:34:55;94752.00;;;24.50
14023;BMP180;7086;48.116;11.580;2023-09-18T06:37:23;94757.00;;;24.60
14023;BMP180;7086;48.116;11.580;2023-09-18T06:39:50;94756.00;;;24.70
14023;BMP180;7086;48.116;11.580;2023-09-18T06:42:16;94757.00;;;24.90
14023;BMP180;7086;48.116;11.580;2023-09-18T06:44:43;94741.00;;;25.00
14023;BMP180;7086;48.116;11.580;2023-09-18T06:47:10;94758.00;;;25.10
14023;BMP180;7086;48.116;11.580;2023-09-18T06:49:38;94759.00;;;25.20
14023;BMP180;7086;48.116;11.580;2023-09-18T06:52:07;94771.00;;;25.40
14023;BMP180;7086;48.116;11.580;2023-09-18T06:54:33;94769.00;;;25.50
14023;BMP180;7086;48.116;11.580;2023-09-18T06:57:01;94781.00;;;25.70
14023;BMP180;7086;48.116;11.580;2023-09-18T06:59:28;94784.00;;;25.70
14023;BMP180;7086;48.116;11.580;2023-09-18T07:01:57;94798.00;;;25.70
14023;BMP180;7086;48.116;11.580;2023-09-18T07:04:24;94797.00;;;25.80
14023;BMP180;7086;48.116;11.580;2023-09-18T07:06:52;94815.00;;;25.90
14023;BMP180;7086;48.116;11.580;2023-09-18T07:09:19;94824.00;;;26.00
14023;BMP180;7086;48.116;11.580;2023-09-18T07:11:48;94821.00;;;26.00
14023;BMP180;7086;48.116;11.580;2023-09-18T07:14:16;94804.00;;;26.10
14023;BMP180;7086;48.116;11.580;2023-09-18T07:16:43;94810.00;;;26.30
14023;BMP180;7086;48.116;11.580;2023-09-18T07:19:10;94832.00;;;26.60
14023;BMP180;7086;48.116;11.580;2023-09-18T07:21:42;94824.00;;;27.00
14023;BMP180;7086;48.116;11.580;2023-09-18T07:24:10;94830.00;;;27.60
14023;BMP180;7086;48.116;11.580;2023-09-18T07:26:43;94840.00;;;28.20
14023;BMP180;7086;48.116;11.580;2023-09-18T07:29:11;94835.00;;;28.90
14023;BMP180;7086;48.116;11.580;2023-09-18T07:31:38;94829.00;;;29.60
14023;BMP180;7086;48.116;11.580;2023-09-18T07:34:05;94832.00;;;30.30
14023;BMP180;7086;48.116;11.580;2023-09-18T07:36:32;94832.00;;;30.90
14023;BMP180;7086;48.116;11.580;2023-09-18T07:38:59;94829.00;;;31.50
14023;BMP180;7086;48.116;11.580;2023-09-18T07:41:27;94830.00;;;32.00
14023;BMP180;7086;48.116;11.580;2023-09-18T07:43:54;94836.00;;;32.30
14023;BMP180;7086;48.116;11.580;2023-09-18T07:46:23;94840.00;;;32.30
14023;BMP180;7086;48.116;11.580;2023-09-18T07:48:50;94834.00;;;32.70
14023;BMP180;7086;48.116;11.580;2023-09-18T07:51:17;94843.00;;;33.00
14023;BMP180;7086;48.116;11.580;2023-09-18T07:53:44;94846.00;;;33.10
14023;BMP180;7086;48.116;11.580;2023-09-18T07:56:11;94847.00;;;33.20
14023;BMP180;7086;48.116;11.580;2023-09-18T07:58:39;94856.00;;;33.40
14023;BMP180;7086;48.116;11.580;2023-09-18T08:01:06;94868.00;;;33.50
14023;BMP180;7086;48.116;11.580;2023-09-18T08:03:34;94877.00;;;33.50
14023;BMP180;7086;48.116;11.580;2023-09-18T08:06:01;94874.00;;;33.60
14023;BMP180;7086;48.116;11.580;2023-09-18T08:08:30;94878.00;;;33.70
14023;BMP180;7086;48.116;11.580;2023-09-18T08:11:00;94869.00;;;33.90
14023;BMP180;7086;48.116;11.580;2023-09-18T08:13:27;94881.00;;;34.10
14023;BMP180;7086;48.116;11.580;2023-09-18T08:15:56;94879.00;;;34.20
14023;BMP180;7086;48.116;11.580;2023-09-18T08:18:22;94888.00;;;34.30
14023;BMP180;7086;48.116;11.580;2023-09-18T08:20:52;94880.00;;;34.20
14023;BMP180;7086;48.116;11.580;2023-09-18T08:23:19;94881.00;;;34.10
14023;BMP180;7086;48.116;11.580;2023-09-18T08:25:46;94886.00;;;34.00
14023;BMP180;7086;48.116;11.580;2023-09-18T08:28:14;94893.00;;;33.80
14023;BMP180;7086;48.116;11.580;2023-09-18T08:30:41;94906.00;;;33.60
14023;BMP180;7086;48.116;11.580;2023-09-18T08:33:13;94900.00;;;33.30
14023;BMP180;7086;48.116;11.580;2023-09-18T08:35:40;94886.00;;;33.10
14023;BMP180;7086;48.116;11.580;2023-09-18T08:38:07;94883.00;;;32.90
14023;BMP180;7086;48.116;11.580;2023-09-18T08:40:35;94908.00;;;32.70
14023;BMP180;7086;48.116;11.580;2023-09-18T08:43:03;94916.00;;;32.40
14023;BMP180;7086;48.116;11.580;2023-09-18T08:45:35;94919.00;;;32.20
14023;BMP180;7086;48.116;11.580;2023-09-18T08:48:04;94915.00;;;32.10
14023;BMP180;7086;48.116;11.580;2023-09-18T08:50:32;94940.00;;;31.90
14023;BMP180;7086;48.116;11.580;2023-09-18T08:52:59;94932.00;;;31.70
14023;BMP180;7086;48.116;11.580;2023-09-18T08:55:27;94919.00;;;31.50
14023;BMP180;7086;48.116;11.580;2023-09-18T08:57:57;94931.00;;;31.20
14023;BMP180;7086;48.116;11.580;2023-09-18T09:00:25;94937.00;;;31.10
14023;BMP180;7086;48.116;11.580;2023-09-18T09:02:52;94947.00;;;31.00
14023;BMP180;7086;48.116;11.580;2023-09-18T09:05:20;94958.00;;;30.80
14023;BMP180;7086;48.116;11.580;2023-09-18T09:07:49;94964.00;;;30.80
14023;BMP180;7086;48.116;11.580;2023-09-18T09:10:16;94961.00;;;30.60
14023;BMP180;7086;48.116;11.580;2023-09-18T09:12:52;94976.00;;;30.50
14023;BMP180;7086;48.116;11.580;2023-09-18T09:15:20;94972.00;;;30.30
14023;BMP180;7086;48.116;11.580;2023-09-18T09:17:48;94955.00;;;30.20
14023;BMP180;7086;48.116;11.580;2023-09-18T09:20:15;94971.00;;;30.10
14023;BMP180;7086;48.116;11.580;2023-09-18T09:22:44;94961.00;;;29.90
14023;BMP180;7086;48.116;11.580;2023-09-18T09:25:23;94957.00;;;29.90
14023;BMP180;7086;48.116;11.580;2023-09-18T09:27:52;94951.00;;;29.80
14023;BMP180;7086;48.116;11.580;2023-09-18T09:30:20;94934.00;;;29.70
14023;BMP180;7086;48.116;11.580;2023-09-18T09:32:51;94923.00;;;29.40
14023;BMP180;7086;48.116;11.580;2023-09-18T09:35:23;94940.00;;;29.70
14023;BMP180;7086;48.116;11.580;2023-09-18T09:37:54;94951.00;;;29.80
14023;BMP180;7086;48.116;11.580;2023-09-18T09:40:25;94950.00;;;29.90
14023;BMP180;7086;48.116;11.580;2023-09-18T09:42:54;94954.00;;;30.10
14023;BMP180;7086;48.116;11.580;2023-09-18T09:45:27;94950.00;;;30.10
14023;BMP180;7086;48.116;11.580;2023-09-18T09:47:56;94948.00;;;30.30
14023;BMP180;7086;48.116;11.580;2023-09-18T09:50:24;94963.00;;;30.50
14023;BMP180;7086;48.116;11.580;2023-09-18T09:52:54;94974.00;;;30.60
14023;BMP180;7086;48.116;11.580;2023-09-18T09:55:28;94964.00;;;30.80
14023;BMP180;7086;48.116;11.580;2023-09-18T09:57:57;94982.00;;;30.90
14023;BMP180;7086;48.116;11.580;2023-09-18T10:00:30;94987.00;;;30.90
14023;BMP180;7086;48.116;11.580;2023-09-18T10:03:04;94987.00;;;30.90
14023;BMP180;7086;48.116;11.580;2023-09-18T10:05:33;94994.00;;;30.90
14023;BMP180;7086;48.116;11.580;2023-09-18T10:08:04;94982.00;;;30.90
14023;BMP180;7086;48.116;11.580;2023-09-18T10:10:36;94985.00;;;30.80
14023;BMP180;7086;48.116;11.580;2023-09-18T10:13:15;94951.00;;;30.90
14023;BMP180;7086;48.116;11.580;2023-09-18T10:15:42;94956.00;;;30.90
14023;BMP180;7086;48.116;11.580;2023-09-18T10:18:17;94963.00;;;30.90
14023;BMP180;7086;48.116;11.580;2023-09-18T10:20:45;94965.00;;;30.90
14023;BMP180;7086;48.116;11.580;2023-09-18T10:23:21;94975.00;;;30.90
14023;BMP180;7086;48.116;11.580;2023-09-18T10:25:54;94971.00;;;30.90
14023;BMP180;7086;48.116;11.580;2023-09-18T10:28:23;94973.00;;;30.90
14023;BMP180;7086;48.116;11.580;2023-09-18T10:30:52;94973.00;;;30.90
14023;BMP180;7086;48.116;11.580;2023-09-18T10:33:20;94978.00;;;30.90
14023;BMP180;7086;48.116;11.580;2023-09-18T10:35:47;94981.00;;;30.90
14023;BMP180;7086;48.116;11.580;2023-09-18T10:38:15;94989.00;;;30.90
14023;BMP180;7086;48.116;11.580;2023-09-18T10:40:43;95002.00;;;30.80
14023;BMP180;7086;48.116;11.580;2023-09-18T10:43:17;94984.00;;;30.80
14023;BMP180;7086;48.116;11.580;2023-09-18T10:45:45;95004.00;;;30.70
14023;BMP180;7086;48.116;11.580;2023-09-18T10:48:12;94996.00;;;30.80
14023;BMP180;7086;48.116;11.580;2023-09-18T10:50:41;94999.00;;;30.70
14023;BMP180;7086;48.116;11.580;2023-09-18T10:53:09;94993.00;;;30.70
14023;BMP180;7086;48.116;11.580;2023-09-18T10:55:36;95003.00;;;30.70
14023;BMP180;7086;48.116;11.580;2023-09-18T10:58:04;94999.00;;;30.70
14023;BMP180;7086;48.116;11.580;2023-09-18T11:00:32;94994.00;;;30.70
14023;BMP180;7086;48.116;11.580;2023-09-18T11:03:13;94968.00;;;30.60
14023;BMP180;7086;48.116;11.580;2023-09-18T11:05:40;95000.00;;;30.50
14023;BMP180;7086;48.116;11.580;2023-09-18T11:08:26;94976.00;;;30.30
14023;BMP180;7086;48.116;11.580;2023-09-18T11:11:02;95002.00;;;30.20
14023;BMP180;7086;48.116;11.580;2023-09-18T11:13:36;95008.00;;;30.10
14023;BMP180;7086;48.116;11.580;2023-09-18T11:16:16;95012.00;;;30.10
14023;BMP180;7086;48.116;11.580;2023-09-18T11:18:47;95002.00;;;30.20
14023;BMP180;7086;48.116;11.580;2023-09-18T11:21:15;95009.00;;;30.20
14023;BMP180;7086;48.116;11.580;2023-09-18T11:23:43;94991.00;;;30.30
14023;BMP180;7086;48.116;11.580;2023-09-18T11:26:10;95013.00;;;30.30
14023;BMP180;7086;48.116;11.580;2023-09-18T11:28:38;95010.00;;;30.20
14023;BMP180;7086;48.116;11.580;2023-09-18T11:31:06;95025.00;;;30.10
14023;BMP180;7086;48.116;11.580;2023-09-18T11:33:35;95030.00;;;30.00
14023;BMP180;7086;48.116;11.580;2023-09-18T11:36:04;95045.00;;;29.90
14023;BMP180;7086;48.116;11.580;2023-09-18T11:38:33;95045.00;;;29.80
14023;BMP180;7086;48.116;11.580;2023-09-18T11:43:43;95050.00;;;29.60
14023;BMP180;7086;48.116;11.580;2023-09-18T11:46:12;95047.00;;;29.50
14023;BMP180;7086;48.116;11.580;2023-09-18T11:48:45;95072.00;;;29.30
14023;BMP180;7086;48.116;11.580;2023-09-18T11:51:21;95057.00;;;29.10
14023;BMP180;7086;48.116;11.580;2023-09-18T11:53:51;95066.00;;;29.00
14023;BMP180;7086;48.116;11.580;2023-09-18T11:56:20;95083.00;;;28.90
14023;BMP180;7086;48.116;11.580;2023-09-18T11:58:47;95083.00;;;28.70
14023;BMP180;7086;48.116;11.580;2023-09-18T12:01:17;95090.00;;;28.60
14023;BMP180;7086;48.116;11.580;2023-09-18T12:03:44;95097.00;;;28.40
14023;BMP180;7086;48.116;11.580;2023-09-18T12:06:13;95075.00;;;28.30
14023;BMP180;7086;48.116;11.580;2023-09-18T12:08:39;95103.00;;;28.20
14023;BMP180;7086;48.116;11.580;2023-09-18T12:11:07;95105.00;;;28.00
14023;BMP180;7086;48.116;11.580;2023-09-18T12:13:34;95106.00;;;27.90
14023;BMP180;7086;48.116;11.580;2023-09-18T12:16:02;95109.00;;;27.70
14023;BMP180;7086;48.116;11.580;2023-09-18T12:18:32;95127.00;;;27.60
14023;BMP180;7086;48.116;11.580;2023-09-18T12:21:01;95122.00;;;27.40
14023;BMP180;7086;48.116;11.580;2023-09-18T12:23:37;95113.00;;;27.30
14023;BMP180;7086;48.116;11.580;2023-09-18T12:26:04;95132.00;;;27.00
14023;BMP180;7086;48.116;11.580;2023-09-18T12:28:33;95128.00;;;26.90
14023;BMP180;7086;48.116;11.580;2023-09-18T12:31:00;95144.00;;;26.70
14023;BMP180;7086;48.116;11.580;2023-09-18T12:33:35;95139.00;;;26.40
14023;BMP180;7086;48.116;11.580;2023-09-18T12:36:03;95138.00;;;26.30
14023;BMP180;7086;48.116;11.580;2023-09-18T12:38:30;95158.00;;;26.20
14023;BMP180;7086;48.116;11.580;2023-09-18T12:40:57;95157.00;;;26.10
14023;BMP180;7086;48.116;11.580;2023-09-18T12:43:34;95154.00;;;25.90
14023;BMP180;7086;48.116;11.580;2023-09-18T12:46:02;95157.00;;;25.80
14023;BMP180;7086;48.116;11.580;2023-09-18T12:48:29;95152.00;;;25.70
14023;BMP180;7086;48.116;11.580;2023-09-18T12:51:03;95157.00;;;25.60
14023;BMP180;7086;48.116;11.580;2023-09-18T12:53:30;95168.00;;;25.50
14023;BMP180;7086;48.116;11.580;2023-09-18T12:56:05;95163.00;;;25.30
14023;BMP180;7086;48.116;11.580;2023-09-18T12:58:32;95167.00;;;25.20
14023;BMP180;7086;48.116;11.580;2023-09-18T13:01:04;95173.00;;;25.00
14023;BMP180;7086;48.116;11.580;2023-09-18T13:03:34;95162.00;;;24.90
14023;BMP180;7086;48.116;11.580;2023-09-18T13:06:10;95176.00;;;24.60
14023;BMP180;7086;48.116;11.580;2023-09-18T13:08:37;95168.00;;;24.50
14023;BMP180;7086;48.116;11.580;2023-09-18T13:11:04;95150.00;;;24.30
14023;BMP180;7086;48.116;11.580;2023-09-18T13:13:32;95180.00;;;24.20
14023;BMP180;7086;48.116;11.580;2023-09-18T13:15:59;95182.00;;;24.10
14023;BMP180;7086;48.116;11.580;2023-09-18T13:18:26;95186.00;;;24.00
14023;BMP180;7086;48.116;11.580;2023-09-18T13:20:54;95181.00;;;23.80
14023;BMP180;7086;48.116;11.580;2023-09-18T13:23:27;95187.00;;;23.70
14023;BMP180;7086;48.116;11.580;2023-09-18T13:25:59;95173.00;;;23.50
14023;BMP180;7086;48.116;11.580;2023-09-18T13:28:26;95183.00;;;23.40
14023;BMP180;7086;48.116;11.580;2023-09-18T13:30:52;95198.00;;;23.30
14023;BMP180;7086;48.116;11.580;2023-09-18T13:33:19;95180.00;;;23.30
14023;BMP180;7086;48.116;11.580;2023-09-18T13:35:46;95167.00;;;23.30
14023;BMP180;7086;48.116;11.580;2023-09-18T13:38:13;95185.00;;;23.20
14023;BMP180;7086;48.116;11.580;2023-09-18T13:40:45;95183.00;;;23.20
14023;BMP180;7086;48.116;11.580;2023-09-18T13:43:13;95175.00;;;23.20
14023;BMP180;7086;48.116;11.580;2023-09-18T13:45:41;95182.00;;;23.10
14023;BMP180;7086;48.116;11.580;2023-09-18T13:48:08;95178.00;;;23.10
14023;BMP180;7086;48.116;11.580;2023-09-18T13:50:36;95181.00;;;23.10
14023;BMP180;7086;48.116;11.580;2023-09-18T13:53:04;95172.00;;;23.20
14023;BMP180;7086;48.116;11.580;2023-09-18T13:55:31;95165.00;;;23.10
14023;BMP180;7086;48.116;11.580;2023-09-18T13:57:59;95159.00;;;23.10
14023;BMP180;7086;48.116;11.580;2023-09-18T14:00:28;95152.00;;;23.10
14023;BMP180;7086;48.116;11.580;2023-09-18T14:02:56;95121.00;;;23.10
14023;BMP180;7086;48.116;11.580;2023-09-18T14:05:23;95117.00;;;23.30
14023;BMP180;7086;48.116;11.580;2023-09-18T14:07:52;95137.00;;;23.30
14023;BMP180;7086;48.116;11.580;2023-09-18T14:10:23;95135.00;;;23.30
14023;BMP180;7086;48.116;11.580;2023-09-18T14:12:49;95114.00;;;23.40
14023;BMP180;7086;48.116;11.580;2023-09-18T14:15:18;95110.00;;;23.50
14023;BMP180;7086;48.116;11.580;2023-09-18T14:17:45;95111.00;;;23.60